Time;durP1;ratioP1;P1;durP2;ratioP2;P2;SDS_P1;SDS_P2;PMS_P1;PMS_P2;Temp;Humidity;BMP_temperature;BMP_pressure;BME280_temperature;BME280_humidity;BME280_pressure;Samples;Min_cycle;Max_cycle;Signal;HPM_P1;HPM_P2
2022/11/02 00:02:20;;;;;;;;;;;9.80;99.90;;;;;;5054819;28;19939;-72
2022/11/02 00:04:45;;;;;;;;;;;9.70;99.90;;;;;;5055087;28;19992;-73
2022/11/02 00:07:11;;;;;;;;;;;9.70;99.90;;;;;;5054762;28;19913;-73
2022/11/02 00:09:36;;;;;;;;;;;9.60;99.90;;;;;;5036862;28;19924;-72
2022/11/02 00:12:02;;;;;;;;;;;9.50;99.90;;;;;;5036642;28;19921;-73
2022/11/02 00:14:27;;;;;;;;;;;9.40;99.90;;;;;;5055243;28;19913;-72
2022/11/02 00:16:53;;;;;;;;;;;9.40;99.90;;;;;;5036783;28;20384;-72
2022/11/02 00:19:19;;;;;;;;;;;9.40;99.90;;;;;;5054840;28;19909;-72
2022/11/02 00:21:44;;;;;;;;;;;9.40;99.90;;;;;;5054407;28;20377;-72
2022/11/02 00:24:11;;;;;;;;;;;9.30;99.90;;;;;;5054667;28;19909;-72
2022/11/02 00:26:37;;;;;;;;;;;9.30;99.90;;;;;;5036471;28;19913;-72
2022/11/02 00:29:03;;;;;;;;;;;9.30;99.90;;;;;;5036929;28;19920;-72
2022/11/02 00:31:29;;;;;;;;;;;9.30;99.90;;;;;;5054172;28;19913;-72
2022/11/02 00:33:55;;;;;;;;;;;9.30;99.90;;;;;;5054243;28;20062;-72
2022/11/02 00:36:20;;;;;;;;;;;9.30;99.90;;;;;;5036745;28;19955;-72
2022/11/02 00:38:46;;;;;;;;;;;9.30;99.90;;;;;;5036343;28;19955;-72
2022/11/02 00:41:11;;;;;;;;;;;9.30;99.90;;;;;;5054160;28;19945;-72
2022/11/02 00:43:37;;;;;;;;;;;9.20;99.90;;;;;;5054068;28;19913;-72
2022/11/02 00:46:03;;;;;;;;;;;9.20;99.90;;;;;;5054070;28;19920;-72
2022/11/02 00:48:28;;;;;;;;;;;9.20;99.90;;;;;;5054283;28;20297;-72
2022/11/02 00:50:54;;;;;;;;;;;9.20;99.90;;;;;;5053412;28;19939;-72
2022/11/02 00:53:20;;;;;;;;;;;9.20;99.90;;;;;;5053873;28;19913;-72
2022/11/02 00:55:46;;;;;;;;;;;9.20;99.90;;;;;;5053861;28;19915;-72
2022/11/02 00:58:12;;;;;;;;;;;9.10;99.90;;;;;;5054156;28;19975;-72
2022/11/02 01:00:37;;;;;;;;;;;9.10;99.90;;;;;;5053818;28;20320;-72
2022/11/02 01:03:03;;;;;;;;;;;9.00;99.90;;;;;;5053809;28;19913;-72
2022/11/02 01:05:28;;;;;;;;;;;9.00;99.90;;;;;;5035933;28;20401;-72
2022/11/02 01:07:54;;;;;;;;;;;8.90;99.90;;;;;;5053741;28;19909;-72
2022/11/02 01:10:20;;;;;;;;;;;8.90;99.90;;;;;;5053612;28;19912;-72
2022/11/02 01:12:45;;;;;;;;;;;8.90;99.90;;;;;;5035676;28;20059;-72
2022/11/02 01:15:11;;;;;;;;;;;8.80;99.90;;;;;;5053645;28;19917;-72
2022/11/02 01:17:36;;;;;;;;;;;8.70;99.90;;;;;;5035844;28;20364;-72
2022/11/02 01:20:03;;;;;;;;;;;8.70;99.90;;;;;;5053576;28;20324;-72
2022/11/02 01:22:28;;;;;;;;;;;8.60;99.90;;;;;;5053449;28;19919;-72
2022/11/02 01:24:54;;;;;;;;;;;8.60;99.90;;;;;;5053538;28;19999;-72
2022/11/02 01:27:19;;;;;;;;;;;8.60;99.90;;;;;;5053785;28;19967;-72
2022/11/02 01:29:45;;;;;;;;;;;8.70;99.90;;;;;;5053365;28;19917;-72
2022/11/02 01:32:10;;;;;;;;;;;8.60;99.90;;;;;;5053607;28;19917;-72
2022/11/02 01:34:37;;;;;;;;;;;8.60;99.90;;;;;;5053726;28;20004;-72
2022/11/02 01:37:03;;;;;;;;;;;8.60;99.90;;;;;;5053696;28;19939;-72
2022/11/02 01:39:28;;;;;;;;;;;8.60;99.90;;;;;;5053397;28;19913;-72
2022/11/02 01:41:54;;;;;;;;;;;8.60;99.90;;;;;;5053309;28;19913;-72
2022/11/02 01:44:30;;;;;;;;;;;8.50;99.90;;;;;;5053289;28;19974;-72
2022/11/02 01:46:58;;;;;;;;;;;8.50;99.90;;;;;;5053313;28;19932;-72
2022/11/02 01:49:24;;;;;;;;;;;8.50;99.90;;;;;;5035396;28;19909;-72
2022/11/02 01:52:05;;;;;;;;;;;8.50;99.90;;;;;;5053219;28;19919;-72
2022/11/02 01:54:36;;;;;;;;;;;8.50;99.90;;;;;;5053514;28;20246;-72
2022/11/02 01:57:04;;;;;;;;;;;8.40;99.90;;;;;;5053491;28;19939;-72
2022/11/02 01:59:32;;;;;;;;;;;8.40;99.90;;;;;;5035264;28;20011;-72
2022/11/02 02:01:58;;;;;;;;;;;8.40;99.90;;;;;;5054516;28;19909;-72
2022/11/02 02:04:24;;;;;;;;;;;8.40;99.90;;;;;;5039162;28;19975;-72
2022/11/02 02:06:50;;;;;;;;;;;8.40;99.90;;;;;;5057342;28;19909;-72
2022/11/02 02:09:16;;;;;;;;;;;8.30;99.90;;;;;;5057336;28;20387;-72
2022/11/02 02:11:42;;;;;;;;;;;8.30;99.90;;;;;;5056802;28;20003;-72
2022/11/02 02:14:13;;;;;;;;;;;8.20;99.90;;;;;;5057157;28;19960;-72
2022/11/02 02:16:45;;;;;;;;;;;8.20;99.90;;;;;;5056850;28;19909;-72
2022/11/02 02:19:17;;;;;;;;;;;8.10;99.90;;;;;;5057377;28;20291;-72
2022/11/02 02:21:50;;;;;;;;;;;8.20;99.90;;;;;;5056297;28;20470;-72
2022/11/02 02:24:35;;;;;;;;;;;8.10;99.90;;;;;;5056719;28;20369;-72
2022/11/02 02:27:15;;;;;;;;;;;8.10;99.90;;;;;;5056697;28;19916;-72
2022/11/02 02:29:43;;;;;;;;;;;8.00;99.90;;;;;;5056590;28;19917;-72
2022/11/02 02:32:09;;;;;;;;;;;8.00;99.90;;;;;;5056536;28;20292;-72
2022/11/02 02:34:38;;;;;;;;;;;8.00;99.90;;;;;;5056604;28;19916;-72
2022/11/02 02:37:11;;;;;;;;;;;7.90;99.90;;;;;;5056446;28;20308;-72
2022/11/02 02:39:50;;;;;;;;;;;7.80;99.90;;;;;;5056425;28;20008;-72
2022/11/02 02:42:22;;;;;;;;;;;7.80;99.90;;;;;;5056637;28;19909;-72
2022/11/02 02:45:06;;;;;;;;;;;7.80;99.90;;;;;;5056318;28;19915;-72
2022/11/02 02:47:32;;;;;;;;;;;7.80;99.90;;;;;;5056527;28;20281;-72
2022/11/02 02:50:10;;;;;;;;;;;7.80;99.90;;;;;;5056437;28;20353;-72
2022/11/02 02:52:36;;;;;;;;;;;7.80;99.90;;;;;;5056370;28;19908;-72
2022/11/02 02:55:04;;;;;;;;;;;7.70;99.90;;;;;;5056697;28;19919;-72
2022/11/02 02:57:30;;;;;;;;;;;7.60;99.90;;;;;;5056283;28;20264;-71
2022/11/02 02:59:55;;;;;;;;;;;7.60;99.90;;;;;;5056578;28;19951;-72
2022/11/02 03:02:27;;;;;;;;;;;7.60;99.90;;;;;;5056160;28;19956;-72
2022/11/02 03:04:52;;;;;;;;;;;7.60;99.90;;;;;;5038030;28;19947;-72
2022/11/02 03:07:38;;;;;;;;;;;7.60;99.90;;;;;;5055946;28;19937;-72
2022/11/02 03:10:15;;;;;;;;;;;7.60;99.90;;;;;;5055705;28;19917;-72
2022/11/02 03:12:40;;;;;;;;;;;7.60;99.90;;;;;;5055578;28;19960;-72
2022/11/02 03:15:20;;;;;;;;;;;7.50;99.90;;;;;;5055309;28;19920;-72
2022/11/02 03:17:49;;;;;;;;;;;7.50;99.90;;;;;;5055966;28;19916;-72
2022/11/02 03:20:35;;;;;;;;;;;7.40;99.90;;;;;;5055689;28;19912;-72
2022/11/02 03:23:09;;;;;;;;;;;7.40;99.90;;;;;;5044839;28;19940;-72
2022/11/02 03:25:42;;;;;;;;;;;7.30;99.90;;;;;;5055644;28;19909;-72
2022/11/02 03:28:07;;;;;;;;;;;7.30;99.90;;;;;;5055875;28;19955;-72
2022/11/02 03:30:36;;;;;;;;;;;7.30;99.90;;;;;;5055480;28;19920;-72
2022/11/02 03:33:05;;;;;;;;;;;7.30;99.90;;;;;;5055980;28;19913;-72
2022/11/02 03:35:30;;;;;;;;;;;7.30;99.90;;;;;;5055419;28;19909;-72
2022/11/02 03:37:59;;;;;;;;;;;7.30;99.90;;;;;;5055413;28;19958;-72
2022/11/02 03:40:27;;;;;;;;;;;7.30;99.90;;;;;;5055343;28;19934;-72
2022/11/02 03:42:53;;;;;;;;;;;7.30;99.90;;;;;;5037239;28;19908;-72
2022/11/02 03:45:23;;;;;;;;;;;7.30;99.90;;;;;;5055219;28;19936;-72
2022/11/02 03:47:51;;;;;;;;;;;7.20;99.90;;;;;;5055244;28;19909;-72
2022/11/02 03:50:19;;;;;;;;;;;7.20;99.90;;;;;;5055369;28;20003;-72
2022/11/02 03:52:46;;;;;;;;;;;7.20;99.90;;;;;;5055020;28;19944;-72
2022/11/02 03:55:15;;;;;;;;;;;7.20;99.90;;;;;;5055601;28;19908;-72
2022/11/02 03:57:43;;;;;;;;;;;7.20;99.90;;;;;;5055014;28;19908;-72
2022/11/02 04:00:14;;;;;;;;;;;7.20;99.90;;;;;;5055249;28;19909;-72
2022/11/02 04:02:41;;;;;;;;;;;7.10;99.90;;;;;;5036947;28;19932;-72
2022/11/02 04:05:06;;;;;;;;;;;7.10;99.90;;;;;;5055168;28;19916;-72
2022/11/02 04:08:19;;;;;;;;;;;7.00;99.90;;;;;;5054843;28;20288;-72
2022/11/02 04:10:19;;;;;;;;;;;7.00;99.90;;;;;;5054582;28;19982;-72
2022/11/02 04:15:29;;;;;;;;;;;6.90;99.90;;;;;;5055213;28;19915;-72
2022/11/02 04:20:38;;;;;;;;;;;6.80;99.90;;;;;;5054888;28;20320;-72
2022/11/02 04:25:54;;;;;;;;;;;6.80;99.90;;;;;;5054812;28;19919;-72
2022/11/02 04:28:20;;;;;;;;;;;6.80;99.90;;;;;;5054407;28;19909;-72
2022/11/02 04:30:46;;;;;;;;;;;6.70;99.90;;;;;;5054608;28;19913;-72
2022/11/02 04:35:55;;;;;;;;;;;6.70;99.90;;;;;;5054892;28;19919;-72
2022/11/02 04:38:39;;;;;;;;;;;6.70;99.90;;;;;;5037132;28;20349;-72
2022/11/02 04:43:49;;;;;;;;;;;6.70;99.90;;;;;;5053404;28;19919;-72
2022/11/02 04:46:15;;;;;;;;;;;6.60;99.90;;;;;;5054043;28;20375;-72
2022/11/02 04:48:40;;;;;;;;;;;6.60;99.90;;;;;;5053962;28;19913;-72
2022/11/02 04:51:06;;;;;;;;;;;6.60;99.90;;;;;;5035175;28;19916;-72
2022/11/02 04:53:32;;;;;;;;;;;6.60;99.90;;;;;;5053837;28;19913;-72
2022/11/02 04:55:57;;;;;;;;;;;6.70;99.90;;;;;;5052957;28;19909;-72
2022/11/02 04:58:23;;;;;;;;;;;6.60;99.90;;;;;;5053937;28;20384;-72
2022/11/02 05:00:48;;;;;;;;;;;6.70;99.90;;;;;;5053724;28;20274;-72
2022/11/02 05:03:14;;;;;;;;;;;6.70;99.90;;;;;;5034962;28;20373;-72
2022/11/02 05:05:39;;;;;;;;;;;6.70;99.90;;;;;;5053621;28;19913;-71
2022/11/02 05:08:05;;;;;;;;;;;6.60;99.90;;;;;;5053412;28;20400;-72
2022/11/02 05:10:30;;;;;;;;;;;6.60;99.90;;;;;;5053425;28;19921;-72
2022/11/02 05:12:57;;;;;;;;;;;6.50;99.90;;;;;;5053320;28;19921;-72
2022/11/02 05:15:22;;;;;;;;;;;6.50;99.90;;;;;;5053513;28;19999;-72
2022/11/02 05:17:48;;;;;;;;;;;6.50;99.90;;;;;;5053494;28;19959;-72
2022/11/02 05:20:13;;;;;;;;;;;6.50;99.90;;;;;;5053513;28;19913;-72
2022/11/02 05:22:42;;;;;;;;;;;6.50;99.90;;;;;;5053134;28;19909;-72
2022/11/02 05:25:08;;;;;;;;;;;6.40;99.90;;;;;;5053433;28;19916;-72
2022/11/02 05:27:34;;;;;;;;;;;6.50;99.90;;;;;;5053337;28;19909;-72
2022/11/02 05:29:59;;;;;;;;;;;6.50;99.90;;;;;;5053258;28;19942;-72
2022/11/02 05:32:28;;;;;;;;;;;6.50;99.90;;;;;;5035275;28;19908;-72
2022/11/02 05:34:54;;;;;;;;;;;6.50;99.90;;;;;;5035301;28;20379;-72
2022/11/02 05:37:19;;;;;;;;;;;6.50;99.90;;;;;;5057105;28;19980;-72
2022/11/02 05:39:45;;;;;;;;;;;6.50;99.90;;;;;;5059926;28;19913;-72
2022/11/02 05:42:10;;;;;;;;;;;6.50;99.90;;;;;;5059900;28;20396;-72
2022/11/02 05:44:36;;;;;;;;;;;6.40;99.90;;;;;;5041858;28;19913;-71
2022/11/02 05:47:02;;;;;;;;;;;6.40;99.90;;;;;;5059844;28;19920;-71
2022/11/02 05:49:27;;;;;;;;;;;6.40;99.90;;;;;;5059832;28;19921;-72
2022/11/02 05:51:53;;;;;;;;;;;6.30;99.90;;;;;;5059746;28;20361;-72
2022/11/02 05:54:19;;;;;;;;;;;6.30;99.90;;;;;;5041471;28;19913;-72
2022/11/02 05:56:44;;;;;;;;;;;6.30;99.90;;;;;;5023440;28;19996;-72
2022/11/02 05:59:10;;;;;;;;;;;6.30;99.90;;;;;;5059477;28;19955;-72
2022/11/02 06:01:35;;;;;;;;;;;6.20;99.90;;;;;;5041925;28;20012;-72
2022/11/02 06:04:01;;;;;;;;;;;6.20;99.90;;;;;;5059479;28;19917;-72
2022/11/02 06:06:26;;;;;;;;;;;6.20;99.90;;;;;;5022668;28;19965;-72
2022/11/02 06:08:52;;;;;;;;;;;6.20;99.90;;;;;;5058727;28;19928;-73
2022/11/02 06:11:17;;;;;;;;;;;6.20;99.90;;;;;;5059598;28;19917;-72
2022/11/02 06:13:43;;;;;;;;;;;6.20;99.90;;;;;;5059169;28;19923;-72
2022/11/02 06:16:14;;;;;;;;;;;6.20;99.90;;;;;;5059896;28;19908;-72
2022/11/02 06:18:40;;;;;;;;;;;6.30;99.90;;;;;;5059016;28;20369;-73
2022/11/02 06:21:05;;;;;;;;;;;6.30;99.90;;;;;;5059041;28;20026;-72
2022/11/02 06:23:31;;;;;;;;;;;6.30;99.90;;;;;;5059519;28;20391;-73
2022/11/02 06:25:57;;;;;;;;;;;6.30;99.90;;;;;;5058519;28;20277;-72
2022/11/02 06:28:23;;;;;;;;;;;6.30;99.90;;;;;;5041574;28;19909;-73
2022/11/02 06:30:49;;;;;;;;;;;6.30;99.90;;;;;;5040751;28;19923;-72
2022/11/02 06:33:15;;;;;;;;;;;6.30;99.90;;;;;;5021422;28;20007;-72
2022/11/02 06:35:45;;;;;;;;;;;6.30;99.90;;;;;;5020816;28;19917;-72
2022/11/02 06:38:11;;;;;;;;;;;6.40;99.90;;;;;;5039865;28;19913;-72
2022/11/02 06:40:36;;;;;;;;;;;6.40;99.90;;;;;;5039415;28;20293;-73
2022/11/02 06:43:02;;;;;;;;;;;6.50;99.90;;;;;;5038258;28;19920;-73
2022/11/02 06:45:27;;;;;;;;;;;6.50;99.90;;;;;;5039580;28;19917;-72
2022/11/02 06:47:53;;;;;;;;;;;6.50;99.90;;;;;;5037780;28;19909;-72
2022/11/02 06:50:19;;;;;;;;;;;6.50;99.90;;;;;;5019030;28;19918;-72
2022/11/02 06:52:45;;;;;;;;;;;6.60;99.90;;;;;;5036239;28;19963;-72
2022/11/02 06:55:11;;;;;;;;;;;6.60;99.90;;;;;;5036597;28;20043;-72
2022/11/02 06:57:37;;;;;;;;;;;6.70;99.90;;;;;;5036576;28;19909;-72
2022/11/02 07:00:03;;;;;;;;;;;6.70;99.90;;;;;;5018486;28;19909;-72
2022/11/02 07:02:29;;;;;;;;;;;6.70;99.90;;;;;;5018922;28;19909;-72
2022/11/02 07:04:55;;;;;;;;;;;6.80;99.90;;;;;;5018628;28;20251;-72
2022/11/02 07:07:21;;;;;;;;;;;6.80;99.90;;;;;;5036441;28;19917;-72
2022/11/02 07:09:47;;;;;;;;;;;6.80;99.90;;;;;;5036025;28;19910;-72
2022/11/02 07:12:12;;;;;;;;;;;6.80;99.90;;;;;;5036035;28;19927;-72
2022/11/02 07:14:38;;;;;;;;;;;6.90;99.90;;;;;;5018181;28;19952;-72
2022/11/02 07:17:03;;;;;;;;;;;6.90;99.90;;;;;;5035907;28;19913;-73
2022/11/02 07:19:29;;;;;;;;;;;6.90;99.90;;;;;;5035907;28;19913;-72
2022/11/02 07:21:55;;;;;;;;;;;6.90;99.90;;;;;;5017932;28;20353;-73
2022/11/02 07:24:20;;;;;;;;;;;7.00;99.90;;;;;;5034893;28;19919;-72
2022/11/02 07:26:49;;;;;;;;;;;6.90;99.90;;;;;;5017964;28;19916;-72
2022/11/02 07:29:15;;;;;;;;;;;7.00;99.90;;;;;;5017952;28;20285;-72
2022/11/02 07:31:41;;;;;;;;;;;7.00;99.90;;;;;;5035663;28;19987;-72
2022/11/02 07:34:06;;;;;;;;;;;7.00;99.90;;;;;;5036099;28;20395;-72
2022/11/02 07:36:32;;;;;;;;;;;7.00;99.90;;;;;;5035587;28;20289;-72
2022/11/02 07:38:57;;;;;;;;;;;7.00;99.90;;;;;;5035513;28;20285;-72
2022/11/02 07:41:23;;;;;;;;;;;7.00;99.90;;;;;;5034616;28;19913;-72
2022/11/02 07:43:49;;;;;;;;;;;7.00;99.90;;;;;;5035381;28;19910;-72
2022/11/02 07:46:14;;;;;;;;;;;7.00;99.90;;;;;;5035385;28;19964;-72
2022/11/02 07:48:40;;;;;;;;;;;7.00;99.90;;;;;;5035640;28;19909;-72
2022/11/02 07:51:10;;;;;;;;;;;7.10;99.90;;;;;;5035249;28;20316;-72
2022/11/02 07:53:36;;;;;;;;;;;7.10;99.90;;;;;;5017455;28;19971;-72
2022/11/02 07:56:04;;;;;;;;;;;7.10;99.90;;;;;;5035190;28;19913;-72
2022/11/02 07:58:30;;;;;;;;;;;7.20;99.90;;;;;;5017429;28;19921;-72
2022/11/02 08:00:59;;;;;;;;;;;7.30;99.90;;;;;;5017051;28;19913;-72
2022/11/02 08:03:25;;;;;;;;;;;7.40;99.90;;;;;;5035175;28;19909;-72
2022/11/02 08:05:52;;;;;;;;;;;7.40;99.90;;;;;;5035024;28;19913;-72
2022/11/02 08:08:19;;;;;;;;;;;7.50;99.90;;;;;;5035238;28;19948;-73
2022/11/02 08:10:45;;;;;;;;;;;7.60;99.90;;;;;;5034880;28;19913;-72
2022/11/02 08:13:12;;;;;;;;;;;7.60;99.90;;;;;;5034745;28;20282;-72
2022/11/02 08:15:38;;;;;;;;;;;7.70;99.90;;;;;;5035020;28;19949;-72
2022/11/02 08:18:14;;;;;;;;;;;7.70;99.90;;;;;;5033510;28;19948;-72
2022/11/02 08:20:40;;;;;;;;;;;7.80;99.90;;;;;;5035224;28;20333;-72
2022/11/02 08:23:09;;;;;;;;;;;7.90;99.90;;;;;;5034632;28;20003;-72
2022/11/02 08:25:34;;;;;;;;;;;7.90;99.90;;;;;;5034936;28;19909;-72
2022/11/02 08:28:00;;;;;;;;;;;8.00;99.90;;;;;;5034599;28;20373;-72
2022/11/02 08:30:26;;;;;;;;;;;8.10;99.90;;;;;;5034689;28;19919;-72
2022/11/02 08:32:52;;;;;;;;;;;8.20;99.90;;;;;;5034707;28;19920;-72
2022/11/02 08:35:18;;;;;;;;;;;8.30;99.90;;;;;;5033271;28;20283;-72
2022/11/02 08:37:43;;;;;;;;;;;8.40;99.90;;;;;;5016696;28;19913;-72
2022/11/02 08:40:09;;;;;;;;;;;8.50;99.90;;;;;;5034615;28;20328;-72
2022/11/02 08:42:37;;;;;;;;;;;8.50;99.90;;;;;;5033035;28;20366;-72
2022/11/02 08:45:04;;;;;;;;;;;8.70;99.90;;;;;;5034505;28;19913;-72
2022/11/02 08:47:30;;;;;;;;;;;8.80;99.90;;;;;;5016812;28;19959;-72
2022/11/02 08:49:55;;;;;;;;;;;8.80;99.90;;;;;;5034333;28;19968;-71
2022/11/02 08:52:21;;;;;;;;;;;9.00;99.90;;;;;;5034065;28;19917;-72
2022/11/02 08:54:46;;;;;;;;;;;9.10;99.90;;;;;;5034120;28;19920;-72
2022/11/02 08:57:12;;;;;;;;;;;9.20;99.90;;;;;;5034309;28;19913;-72
2022/11/02 08:59:38;;;;;;;;;;;9.30;99.90;;;;;;5032853;28;19920;-72
2022/11/02 09:02:03;;;;;;;;;;;9.50;99.90;;;;;;5034340;28;19941;-72
2022/11/02 09:04:29;;;;;;;;;;;9.60;99.90;;;;;;5033995;28;20262;-72
2022/11/02 09:06:54;;;;;;;;;;;9.70;99.90;;;;;;5032742;28;19913;-72
2022/11/02 09:09:20;;;;;;;;;;;9.90;99.90;;;;;;5016216;28;20380;-72
2022/11/02 09:11:48;;;;;;;;;;;10.00;99.90;;;;;;5015264;28;19925;-72
2022/11/02 09:14:13;;;;;;;;;;;10.10;99.90;;;;;;5034193;28;19909;-72
2022/11/02 09:16:39;;;;;;;;;;;10.30;99.90;;;;;;5034366;28;19921;-72
2022/11/02 09:19:04;;;;;;;;;;;10.40;99.90;;;;;;5016033;28;19917;-73
2022/11/02 09:21:30;;;;;;;;;;;10.40;99.90;;;;;;5033691;28;19925;-73
2022/11/02 09:23:55;;;;;;;;;;;10.50;99.90;;;;;;5016758;28;19920;-72
2022/11/02 09:26:21;;;;;;;;;;;10.50;99.90;;;;;;5033700;28;19917;-72
2022/11/02 09:28:47;;;;;;;;;;;10.60;99.90;;;;;;5017055;28;20350;-72
2022/11/02 09:31:12;;;;;;;;;;;10.70;99.90;;;;;;5032399;28;20011;-72
2022/11/02 09:33:38;;;;;;;;;;;10.80;99.90;;;;;;5033518;28;20301;-72
2022/11/02 09:36:04;;;;;;;;;;;10.80;99.90;;;;;;5015822;28;20365;-71
2022/11/02 09:38:29;;;;;;;;;;;10.90;99.90;;;;;;5033753;28;19909;-71
2022/11/02 09:41:02;;;;;;;;;;;11.00;99.90;;;;;;5033593;28;19960;-71
2022/11/02 09:43:37;;;;;;;;;;;11.00;99.90;;;;;;5015694;28;19913;-71
2022/11/02 09:46:04;;;;;;;;;;;11.10;99.90;;;;;;5033764;28;20401;-71
2022/11/02 09:48:32;;;;;;;;;;;11.10;99.90;;;;;;5033720;28;19909;-71
2022/11/02 09:51:00;;;;;;;;;;;11.20;99.90;;;;;;5033703;28;20381;-71
2022/11/02 09:53:40;;;;;;;;;;;11.30;99.90;;;;;;5033323;28;20008;-71
2022/11/02 09:56:06;;;;;;;;;;;11.40;99.90;;;;;;5033939;28;19909;-70
2022/11/02 09:58:39;;;;;;;;;;;11.60;99.90;;;;;;5015646;28;19963;-71
2022/11/02 10:01:12;;;;;;;;;;;11.70;99.90;;;;;;5033295;28;20365;-71
2022/11/02 10:03:44;;;;;;;;;;;11.80;99.90;;;;;;5033354;28;19909;-71
2022/11/02 10:06:17;;;;;;;;;;;11.90;99.90;;;;;;5033249;28;19909;-71
2022/11/02 10:08:49;;;;;;;;;;;12.00;99.90;;;;;;5033195;28;19909;-71
2022/11/02 10:11:23;;;;;;;;;;;12.10;99.90;;;;;;5033384;28;20012;-71
2022/11/02 10:13:58;;;;;;;;;;;12.10;99.90;;;;;;5015268;28;20004;-71
2022/11/02 10:16:27;;;;;;;;;;;12.10;99.90;;;;;;5033113;28;19913;-70
2022/11/02 10:18:53;;;;;;;;;;;12.20;99.90;;;;;;5043755;28;19917;-71
2022/11/02 10:21:28;;;;;;;;;;;12.20;99.90;;;;;;5034942;28;20388;-71
2022/11/02 10:23:54;;;;;;;;;;;12.20;99.90;;;;;;5055631;28;19909;-71
2022/11/02 10:26:34;;;;;;;;;;;12.30;99.90;;;;;;5038217;28;19916;-71
2022/11/02 10:29:12;;;;;;;;;;;12.30;99.90;;;;;;5056649;28;19909;-71
2022/11/02 10:31:38;;;;;;;;;;;12.40;99.90;;;;;;5056086;28;20004;-71
2022/11/02 10:34:12;;;;;;;;;;;12.50;99.90;;;;;;5056970;28;19920;-73
2022/11/02 10:36:46;;;;;;;;;;;12.70;99.90;;;;;;5050604;28;19909;-73
2022/11/02 10:39:14;;;;;;;;;;;12.80;99.90;;;;;;5038857;28;20288;-73
2022/11/02 10:41:40;;;;;;;;;;;12.90;99.90;;;;;;5055253;28;19909;-73
2022/11/02 10:44:05;;;;;;;;;;;12.90;99.90;;;;;;5056162;28;19932;-73
2022/11/02 10:46:31;;;;;;;;;;;13.10;99.90;;;;;;5056209;28;19920;-72
2022/11/02 10:49:04;;;;;;;;;;;13.10;99.90;;;;;;5056289;28;20057;-73
2022/11/02 10:51:30;;;;;;;;;;;13.20;99.90;;;;;;5056397;28;19963;-72
2022/11/02 10:53:55;;;;;;;;;;;13.20;99.90;;;;;;5056013;28;19956;-73
2022/11/02 10:56:22;;;;;;;;;;;13.30;99.90;;;;;;5055965;28;19920;-73
2022/11/02 10:59:06;;;;;;;;;;;13.50;99.90;;;;;;5056035;28;19909;-72
2022/11/02 11:01:32;;;;;;;;;;;13.60;99.90;;;;;;5056268;28;19939;-72
2022/11/02 11:03:57;;;;;;;;;;;13.70;99.90;;;;;;5055775;28;19912;-73
2022/11/02 11:06:25;;;;;;;;;;;13.80;99.90;;;;;;5055917;28;19931;-72
2022/11/02 11:08:52;;;;;;;;;;;14.00;99.90;;;;;;5055934;28;19913;-72
2022/11/02 11:11:23;;;;;;;;;;;14.00;99.90;;;;;;5055359;28;19956;-72
2022/11/02 11:13:54;;;;;;;;;;;14.10;99.90;;;;;;5055586;28;19924;-72
2022/11/02 11:16:29;;;;;;;;;;;14.10;99.90;;;;;;5055650;28;19909;-72
2022/11/02 11:18:54;;;;;;;;;;;14.20;99.90;;;;;;5037656;28;19912;-72
2022/11/02 11:21:20;;;;;;;;;;;14.20;99.90;;;;;;5055546;28;19986;-72
2022/11/02 11:23:46;;;;;;;;;;;14.30;99.90;;;;;;5055782;28;20315;-72
2022/11/02 11:26:25;;;;;;;;;;;14.30;99.90;;;;;;5055287;28;20400;-72
2022/11/02 11:28:54;;;;;;;;;;;14.40;99.90;;;;;;5055493;28;19955;-73
2022/11/02 11:31:20;;;;;;;;;;;14.30;99.90;;;;;;5055455;28;19913;-73
2022/11/02 11:33:49;;;;;;;;;;;14.30;99.90;;;;;;5055026;28;19908;-73
2022/11/02 11:36:26;;;;;;;;;;;14.40;99.90;;;;;;5054923;28;19909;-73
2022/11/02 11:38:52;;;;;;;;;;;14.40;99.90;;;;;;5055655;28;20262;-73
2022/11/02 11:41:18;;;;;;;;;;;14.40;99.90;;;;;;5037250;28;19908;-73
2022/11/02 11:43:45;;;;;;;;;;;14.30;99.90;;;;;;5055123;28;19908;-73
2022/11/02 11:46:12;;;;;;;;;;;14.40;99.90;;;;;;5055115;28;20439;-71
2022/11/02 11:48:38;;;;;;;;;;;14.30;99.90;;;;;;5055311;28;19967;-72
2022/11/02 11:51:05;;;;;;;;;;;14.40;99.90;;;;;;5055282;28;20369;-72
2022/11/02 11:53:31;;;;;;;;;;;14.50;99.90;;;;;;5034110;28;19909;-73
2022/11/02 11:55:58;;;;;;;;;;;14.60;99.90;;;;;;5016983;28;19913;-72
2022/11/02 11:58:28;;;;;;;;;;;14.60;99.90;;;;;;5030389;28;19963;-72
2022/11/02 12:01:15;;;;;;;;;;;14.50;99.90;;;;;;5036900;28;20000;-72
2022/11/02 12:03:54;;;;;;;;;;;14.50;99.90;;;;;;5054667;28;19916;-73
2022/11/02 12:06:19;;;;;;;;;;;14.40;99.90;;;;;;5054813;28;20016;-72
2022/11/02 12:08:56;;;;;;;;;;;14.50;99.90;;;;;;5054342;28;20371;-72
2022/11/02 12:11:40;;;;;;;;;;;14.50;99.90;;;;;;5034311;28;19938;-72
2022/11/02 12:14:09;;;;;;;;;;;14.60;99.90;;;;;;5034502;28;19924;-72
2022/11/02 12:16:47;;;;;;;;;;;14.50;99.90;;;;;;5052976;28;19916;-73
2022/11/02 12:19:12;;;;;;;;;;;14.60;99.90;;;;;;5054492;28;20027;-72
2022/11/02 12:21:53;;;;;;;;;;;14.60;99.90;;;;;;5054900;28;20399;-72
2022/11/02 12:24:22;;;;;;;;;;;14.70;99.90;;;;;;5036456;28;19909;-73
2022/11/02 12:26:53;;;;;;;;;;;14.60;99.90;;;;;;5054105;28;19952;-72
2022/11/02 12:29:37;;;;;;;;;;;14.60;99.90;;;;;;5054051;28;19999;-72
2022/11/02 12:32:21;;;;;;;;;;;14.60;99.90;;;;;;5052232;28;19938;-72
2022/11/02 12:35:06;;;;;;;;;;;14.50;99.90;;;;;;5034509;28;19909;-72
2022/11/02 12:37:41;;;;;;;;;;;14.40;99.90;;;;;;5054667;28;20031;-73
2022/11/02 12:40:13;;;;;;;;;;;14.40;99.90;;;;;;5054328;28;19959;-73
2022/11/02 12:42:44;;;;;;;;;;;14.40;99.90;;;;;;5054505;28;19995;-74
2022/11/02 12:45:28;;;;;;;;;;;14.40;99.90;;;;;;5054179;28;19916;-73
2022/11/02 12:47:56;;;;;;;;;;;14.50;99.90;;;;;;5054018;28;20284;-73
2022/11/02 12:50:40;;;;;;;;;;;14.40;99.90;;;;;;5054032;28;19956;-73
2022/11/02 12:53:18;;;;;;;;;;;14.40;99.90;;;;;;5053970;28;20003;-73
2022/11/02 12:55:46;;;;;;;;;;;14.40;99.90;;;;;;5054047;28;20004;-73
2022/11/02 12:58:18;;;;;;;;;;;14.40;99.90;;;;;;5054243;28;19935;-73
2022/11/02 13:00:44;;;;;;;;;;;14.40;99.90;;;;;;5054490;28;19910;-73
2022/11/02 13:03:12;;;;;;;;;;;14.30;99.90;;;;;;5036322;28;20327;-73
2022/11/02 13:05:40;;;;;;;;;;;14.20;99.90;;;;;;5053852;28;19913;-73
2022/11/02 13:08:25;;;;;;;;;;;14.30;99.90;;;;;;5054133;28;19962;-72
2022/11/02 13:10:53;;;;;;;;;;;14.20;99.90;;;;;;5022641;28;19960;-73
2022/11/02 13:13:24;;;;;;;;;;;14.20;99.90;;;;;;5035662;28;19921;-73
2022/11/02 13:15:50;;;;;;;;;;;14.20;99.90;;;;;;5053847;28;19909;-73
2022/11/02 13:18:23;;;;;;;;;;;14.10;99.90;;;;;;5054184;28;19916;-74
2022/11/02 13:20:53;;;;;;;;;;;14.10;99.90;;;;;;5054157;28;19909;-73
2022/11/02 13:23:25;;;;;;;;;;;14.00;99.90;;;;;;5035653;28;20377;-73
2022/11/02 13:25:54;;;;;;;;;;;14.00;99.90;;;;;;5053514;28;19909;-73
2022/11/02 13:28:29;;;;;;;;;;;14.00;99.90;;;;;;5035875;28;20371;-74
2022/11/02 13:30:55;;;;;;;;;;;14.00;99.90;;;;;;5053686;28;19912;-73
2022/11/02 13:33:47;;;;;;;;;;;13.90;99.90;;;;;;5053544;28;20284;-73
2022/11/02 13:36:13;;;;;;;;;;;13.80;99.90;;;;;;5033406;28;20369;-74
2022/11/02 13:38:51;;;;;;;;;;;13.80;99.90;;;;;;5053408;28;19920;-73
2022/11/02 13:41:23;;;;;;;;;;;13.80;99.90;;;;;;5035535;28;19916;-73
2022/11/02 13:44:00;;;;;;;;;;;13.80;99.90;;;;;;5035389;28;19909;-73
2022/11/02 13:46:46;;;;;;;;;;;13.80;99.90;;;;;;5053161;28;19961;-72
2022/11/02 13:49:12;;;;;;;;;;;13.80;99.90;;;;;;5052768;28;19924;-73
2022/11/02 13:51:45;;;;;;;;;;;13.80;99.90;;;;;;5053270;28;20463;-73
2022/11/02 13:54:15;;;;;;;;;;;13.80;99.90;;;;;;5053252;28;19909;-73
2022/11/02 13:56:41;;;;;;;;;;;13.80;99.90;;;;;;5053265;28;19908;-74
2022/11/02 13:59:08;;;;;;;;;;;13.80;99.90;;;;;;5056555;28;20012;-72
2022/11/02 14:01:37;;;;;;;;;;;13.70;99.90;;;;;;5057568;28;19916;-74
2022/11/02 14:04:05;;;;;;;;;;;13.70;99.90;;;;;;5057227;28;19916;-73
2022/11/02 14:06:32;;;;;;;;;;;13.70;99.90;;;;;;5057547;28;19916;-72
2022/11/02 14:09:03;;;;;;;;;;;13.70;99.90;;;;;;5039167;28;19932;-72
2022/11/02 14:11:45;;;;;;;;;;;13.70;99.90;;;;;;5057334;28;20317;-73
2022/11/02 14:14:10;;;;;;;;;;;13.70;99.90;;;;;;5057454;28;19998;-74
2022/11/02 14:16:39;;;;;;;;;;;13.60;99.90;;;;;;5057044;28;19952;-73
2022/11/02 14:19:16;;;;;;;;;;;13.60;99.90;;;;;;5056900;28;19920;-73
2022/11/02 14:21:43;;;;;;;;;;;13.60;99.90;;;;;;5057444;28;19952;-73
2022/11/02 14:24:27;;;;;;;;;;;13.60;99.90;;;;;;5056637;28;19913;-72
2022/11/02 14:26:54;;;;;;;;;;;13.60;99.90;;;;;;5057050;28;19908;-73
2022/11/02 14:29:39;;;;;;;;;;;13.60;99.90;;;;;;5056704;28;19909;-72
2022/11/02 14:32:20;;;;;;;;;;;13.60;99.90;;;;;;5055563;28;20050;-72
2022/11/02 14:35:03;;;;;;;;;;;13.60;99.90;;;;;;5056592;28;19905;-73
2022/11/02 14:37:37;;;;;;;;;;;13.60;99.90;;;;;;5057143;28;19916;-72
2022/11/02 14:40:09;;;;;;;;;;;13.60;99.90;;;;;;5056792;28;19995;-74
2022/11/02 14:42:37;;;;;;;;;;;13.60;99.90;;;;;;5056658;28;20410;-73
2022/11/02 14:45:18;;;;;;;;;;;13.50;99.90;;;;;;5056456;28;19963;-74
2022/11/02 14:47:43;;;;;;;;;;;13.50;99.90;;;;;;5056618;28;19947;-74
2022/11/02 14:50:15;;;;;;;;;;;13.40;99.90;;;;;;5057127;28;19971;-73